sensor_id;sensor_type;location;lat;lon;timestamp;temperature;humidity
14022;DHT22;7086;48.116;11.580;2024-01-15T00:07:16;2.30;88.00
14022;DHT22;7086;48.116;11.580;2024-01-15T00:12:11;2.40;88.10
14022;DHT22;7086;48.116;11.580;2024-01-15T00:14:40;2.40;88.30
14022;DHT22;7086;48.116;11.580;2024-01-15T00:17:08;2.40;88.20
14022;DHT22;7086;48.116;11.580;2024-01-15T00:19:35;2.50;88.10
14022;DHT22;7086;48.116;11.580;2024-01-15T00:22:03;-0.50;86.00
14022;DHT22;7086;48.116;11.580;2024-01-15T00:24:30;2.50;88.20
14022;DHT22;7086;48.116;11.580;2024-01-15T00:26:58;2.50;88.10
14022;DHT22;7086;48.116;11.580;2024-01-15T00:29:25;2.50;87.90
14022;DHT22;7086;48.116;11.580;2024-01-15T00:31:54;2.60;87.90
14022;DHT22;7086;48.116;11.580;2024-01-15T00:34:22;2.60;87.40
14022;DHT22;7086;48.116;11.580;2024-01-15T00:36:49;2.60;87.60
14022;DHT22;7086;48.116;11.580;2024-01-15T00:39:17;2.60;87.60
14022;DHT22;7086;48.116;11.580;2024-01-15T00:41:44;2.70;87.50
14022;DHT22;7086;48.116;11.580;2024-01-15T00:44:12;2.60;87.70
14022;DHT22;7086;48.116;11.580;2024-01-15T00:46:43;2.70;87.80
14022;DHT22;7086;48.116;11.580;2024-01-15T00:49:13;2.70;87.60
14022;DHT22;7086;48.116;11.580;2024-01-15T00:51:41;2.70;87.50
14022;DHT22;7086;48.116;11.580;2024-01-15T00:56:37;2.80;87.60
14022;DHT22;7086;48.116;11.580;2024-01-15T00:59:04;2.80;87.50
14022;DHT22;7086;48.116;11.580;2024-01-15T01:03:59;2.90;87.00
14022;DHT22;7086;48.116;11.580;2024-01-15T01:06:28;2.80;86.90
14022;DHT22;7086;48.116;11.580;2024-01-15T01:13:50;2.90;86.40
14022;DHT22;7086;48.116;11.580;2024-01-15T01:18:46;6.10;87.00
14022;DHT22;7086;48.116;11.580;2024-01-15T01:23:42;2.80;84.70
14022;DHT22;7086;48.116;11.580;2024-01-15T01:26:10;2.70;84.50
14022;DHT22;7086;48.116;11.580;2024-01-15T01:28:37;2.60;84.00
14022;DHT22;7086;48.116;11.580;2024-01-15T01:33:34;2.50;83.30
14022;DHT22;7086;48.116;11.580;2024-01-15T01:36:01;2.40;83.20
14022;DHT22;7086;48.116;11.580;2024-01-15T01:41:04;2.30;82.80
14022;DHT22;7086;48.116;11.580;2024-01-15T01:43:31;2.20;82.70
14022;DHT22;7086;48.116;11.580;2024-01-15T01:46:00;2.10;82.80
14022;DHT22;7086;48.116;11.580;2024-01-15T01:48:29;2.10;82.90
14022;DHT22;7086;48.116;11.580;2024-01-15T01:51:00;2.00;82.80
14022;DHT22;7086;48.116;11.580;2024-01-15T01:53:32;1.90;82.80
14022;DHT22;7086;48.116;11.580;2024-01-15T01:56:04;1.80;82.90
14022;DHT22;7086;48.116;11.580;2024-01-15T01:58:33;1.80;82.90
14022;DHT22;7086;48.116;11.580;2024-01-15T02:01:01;1.80;83.20
14022;DHT22;7086;48.116;11.580;2024-01-15T02:03:29;1.70;83.10
14022;DHT22;7086;48.116;11.580;2024-01-15T02:05:57;1.60;82.90
14022;DHT22;7086;48.116;11.580;2024-01-15T02:08:26;1.60;82.90
14022;DHT22;7086;48.116;11.580;2024-01-15T02:10:54;1.50;82.80
14022;DHT22;7086;48.116;11.580;2024-01-15T02:13:22;1.30;82.80
14022;DHT22;7086;48.116;11.580;2024-01-15T02:23:15;1.40;83.50
14022;DHT22;7086;48.116;11.580;2024-01-15T02:25:44;1.40;83.60
14022;DHT22;7086;48.116;11.580;2024-01-15T02:28:14;1.40;83.60
14022;DHT22;7086;48.116;11.580;2024-01-15T02:30:43;1.30;83.70
14022;DHT22;7086;48.116;11.580;2024-01-15T02:33:11;1.40;83.50
14022;DHT22;7086;48.116;11.580;2024-01-15T02:38:07;1.30;83.80
14022;DHT22;7086;48.116;11.580;2024-01-15T02:40:38;1.40;83.90
14022;DHT22;7086;48.116;11.580;2024-01-15T02:43:05;1.40;83.80
14022;DHT22;7086;48.116;11.580;2024-01-15T02:48:01;1.40;84.10
14022;DHT22;7086;48.116;11.580;2024-01-15T02:50:28;1.40;84.10
14022;DHT22;7086;48.116;11.580;2024-01-15T02:52:55;0.20;82.80
14022;DHT22;7086;48.116;11.580;2024-01-15T02:55:23;1.40;83.70
14022;DHT22;7086;48.116;11.580;2024-01-15T02:57:52;1.50;83.80
14022;DHT22;7086;48.116;11.580;2024-01-15T03:00:19;1.40;84.10
14022;DHT22;7086;48.116;11.580;2024-01-15T03:02:49;1.40;83.90
14022;DHT22;7086;48.116;11.580;2024-01-15T03:05:17;1.50;84.00
14022;DHT22;7086;48.116;11.580;2024-01-15T03:12:41;1.60;83.70
14022;DHT22;7086;48.116;11.580;2024-01-15T03:15:10;1.50;83.50
14022;DHT22;7086;48.116;11.580;2024-01-15T03:20:06;1.50;83.40
14022;DHT22;7086;48.116;11.580;2024-01-15T03:25:01;1.50;83.30
14022;DHT22;7086;48.116;11.580;2024-01-15T03:29:57;1.60;83.70
14022;DHT22;7086;48.116;11.580;2024-01-15T03:32:26;1.50;83.30
14022;DHT22;7086;48.116;11.580;2024-01-15T03:34:53;1.60;83.30
14022;DHT22;7086;48.116;11.580;2024-01-15T03:37:21;1.60;83.20
14022;DHT22;7086;48.116;11.580;2024-01-15T03:39:48;1.60;83.20
14022;DHT22;7086;48.116;11.580;2024-01-15T03:42:16;1.60;82.70
14022;DHT22;7086;48.116;11.580;2024-01-15T03:47:11;1.60;83.00
14022;DHT22;7086;48.116;11.580;2024-01-15T03:49:40;1.60;82.60
14022;DHT22;7086;48.116;11.580;2024-01-15T03:52:07;1.60;82.70
14022;DHT22;7086;48.116;11.580;2024-01-15T04:01:59;1.60;82.80
14022;DHT22;7086;48.116;11.580;2024-01-15T04:04:27;1.60;82.70
14022;DHT22;7086;48.116;11.580;2024-01-15T04:06:56;1.60;82.40
14022;DHT22;7086;48.116;11.580;2024-01-15T04:14:19;1.60;82.30
14022;DHT22;7086;48.116;11.580;2024-01-15T04:16:46;1.60;82.20
14022;DHT22;7086;48.116;11.580;2024-01-15T04:19:14;1.60;82.30
14022;DHT22;7086;48.116;11.580;2024-01-15T04:24:11;1.70;82.10
14022;DHT22;7086;48.116;11.580;2024-01-15T04:26:38;1.60;81.60
14022;DHT22;7086;48.116;11.580;2024-01-15T04:29:06;1.60;81.90
14022;DHT22;7086;48.116;11.580;2024-01-15T04:31:33;1.50;81.90
14022;DHT22;7086;48.116;11.580;2024-01-15T04:34:01;1.60;81.90
14022;DHT22;7086;48.116;11.580;2024-01-15T04:36:31;1.60;82.00
14022;DHT22;7086;48.116;11.580;2024-01-15T04:38:58;1.60;81.70
14022;DHT22;7086;48.116;11.580;2024-01-15T04:41:27;1.60;81.80
14022;DHT22;7086;48.116;11.580;2024-01-15T04:43:55;1.60;81.80
14022;DHT22;7086;48.116;11.580;2024-01-15T04:46:22;1.60;81.80
14022;DHT22;7086;48.116;11.580;2024-01-15T04:53:45;1.60;81.90
14022;DHT22;7086;48.116;11.580;2024-01-15T04:56:13;1.70;82.00
14022;DHT22;7086;48.116;11.580;2024-01-15T04:58:44;1.70;82.10
14022;DHT22;7086;48.116;11.580;2024-01-15T05:01:12;1.70;82.00
14022;DHT22;7086;48.116;11.580;2024-01-15T05:03:40;1.70;82.00
14022;DHT22;7086;48.116;11.580;2024-01-15T05:06:08;1.60;82.10
14022;DHT22;7086;48.116;11.580;2024-01-15T05:08:36;1.70;81.60
14022;DHT22;7086;48.116;11.580;2024-01-15T05:13:32;1.70;82.00
14022;DHT22;7086;48.116;11.580;2024-01-15T05:16:01;2.10;81.80
14022;DHT22;7086;48.116;11.580;2024-01-15T05:23:24;1.70;81.80
14022;DHT22;7086;48.116;11.580;2024-01-15T05:25:52;1.60;81.70
14022;DHT22;7086;48.116;11.580;2024-01-15T05:33:17;1.70;81.70
14022;DHT22;7086;48.116;11.580;2024-01-15T05:35:45;1.70;81.20
14022;DHT22;7086;48.116;11.580;2024-01-15T05:38:12;1.80;81.30
14022;DHT22;7086;48.116;11.580;2024-01-15T05:43:08;0.60;80.60
14022;DHT22;7086;48.116;11.580;2024-01-15T05:48:05;1.70;81.30
14022;DHT22;7086;48.116;11.580;2024-01-15T05:50:34;1.70;81.30
14022;DHT22;7086;48.116;11.580;2024-01-15T05:53:02;1.70;80.80
14022;DHT22;7086;48.116;11.580;2024-01-15T05:55:29;1.70;81.00
14022;DHT22;7086;48.116;11.580;2024-01-15T05:57:57;1.80;80.50
14022;DHT22;7086;48.116;11.580;2024-01-15T06:00:24;1.70;80.90
14022;DHT22;7086;48.116;11.580;2024-01-15T06:02:52;1.70;80.50
14022;DHT22;7086;48.116;11.580;2024-01-15T06:05:20;1.70;81.10
14022;DHT22;7086;48.116;11.580;2024-01-15T06:07:49;1.80;80.80
14022;DHT22;7086;48.116;11.580;2024-01-15T06:10:17;1.70;80.90
14022;DHT22;7086;48.116;11.580;2024-01-15T06:12:45;1.80;80.80
14022;DHT22;7086;48.116;11.580;2024-01-15T06:20:09;1.70;80.70
14022;DHT22;7086;48.116;11.580;2024-01-15T06:22:38;1.70;80.40
14022;DHT22;7086;48.116;11.580;2024-01-15T06:25:08;1.70;80.50
14022;DHT22;7086;48.116;11.580;2024-01-15T06:30:04;2.90;81.30
14022;DHT22;7086;48.116;11.580;2024-01-15T06:35:00;1.80;80.80
14022;DHT22;7086;48.116;11.580;2024-01-15T06:42:25;4.40;84.00
14022;DHT22;7086;48.116;11.580;2024-01-15T06:44:53;1.80;81.60
14022;DHT22;7086;48.116;11.580;2024-01-15T06:49:48;1.90;81.30
14022;DHT22;7086;48.116;11.580;2024-01-15T06:59:43;1.60;80.00
14022;DHT22;7086;48.116;11.580;2024-01-15T07:04:40;1.90;80.60
14022;DHT22;7086;48.116;11.580;2024-01-15T07:09:39;1.90;80.60
14022;DHT22;7086;48.116;11.580;2024-01-15T07:17:08;2.00;80.20
14022;DHT22;7086;48.116;11.580;2024-01-15T07:22:04;2.00;80.50
14022;DHT22;7086;48.116;11.580;2024-01-15T07:29:30;1.90;80.30
14022;DHT22;7086;48.116;11.580;2024-01-15T07:34:29;2.00;80.40
14022;DHT22;7086;48.116;11.580;2024-01-15T07:41:54;1.90;80.60
14022;DHT22;7086;48.116;11.580;2024-01-15T07:44:22;2.00;80.20
14022;DHT22;7086;48.116;11.580;2024-01-15T07:51:48;2.10;80.90
14022;DHT22;7086;48.116;11.580;2024-01-15T07:56:55;2.00;80.90
14022;DHT22;7086;48.116;11.580;2024-01-15T08:01:53;2.10;80.70
14022;DHT22;7086;48.116;11.580;2024-01-15T08:06:51;2.10;80.70
14022;DHT22;7086;48.116;11.580;2024-01-15T08:16:43;2.10;80.90
14022;DHT22;7086;48.116;11.580;2024-01-15T08:24:09;2.10;80.90
14022;DHT22;7086;48.116;11.580;2024-01-15T08:26:37;2.10;80.10
14022;DHT22;7086;48.116;11.580;2024-01-15T08:34:02;2.20;80.20
14022;DHT22;7086;48.116;11.580;2024-01-15T08:36:32;4.90;82.40
14022;DHT22;7086;48.116;11.580;2024-01-15T08:41:33;2.20;80.50
14022;DHT22;7086;48.116;11.580;2024-01-15T08:44:02;2.20;79.10
14022;DHT22;7086;48.116;11.580;2024-01-15T08:51:30;2.20;79.80
14022;DHT22;7086;48.116;11.580;2024-01-15T08:54:01;-0.10;79.00
14022;DHT22;7086;48.116;11.580;2024-01-15T08:56:32;2.30;80.40
14022;DHT22;7086;48.116;11.580;2024-01-15T08:59:00;2.30;80.90
14022;DHT22;7086;48.116;11.580;2024-01-15T09:03:59;2.30;80.70
14022;DHT22;7086;48.116;11.580;2024-01-15T09:06:33;2.40;79.70
14022;DHT22;7086;48.116;11.580;2024-01-15T09:09:05;2.40;80.60
14022;DHT22;7086;48.116;11.580;2024-01-15T09:11:36;2.40;80.50
14022;DHT22;7086;48.116;11.580;2024-01-15T09:14:07;2.40;80.70
14022;DHT22;7086;48.116;11.580;2024-01-15T09:19:23;2.50;80.40
14022;DHT22;7086;48.116;11.580;2024-01-15T09:21:54;2.50;81.00
14022;DHT22;7086;48.116;11.580;2024-01-15T09:26:58;3.80;81.50
14022;DHT22;7086;48.116;11.580;2024-01-15T09:29:39;2.60;81.00
14022;DHT22;7086;48.116;11.580;2024-01-15T09:32:25;2.60;80.60
14022;DHT22;7086;48.116;11.580;2024-01-15T09:35:02;2.70;80.90
14022;DHT22;7086;48.116;11.580;2024-01-15T09:40:14;2.70;80.50
14022;DHT22;7086;48.116;11.580;2024-01-15T09:43:03;2.80;80.60
14022;DHT22;7086;48.116;11.580;2024-01-15T09:45:32;2.80;80.20
14022;DHT22;7086;48.116;11.580;2024-01-15T09:48:06;4.20;80.60
14022;DHT22;7086;48.116;11.580;2024-01-15T09:50:47;2.90;80.30
14022;DHT22;7086;48.116;11.580;2024-01-15T09:53:30;3.00;80.40
14022;DHT22;7086;48.116;11.580;2024-01-15T09:56:09;3.00;80.30
14022;DHT22;7086;48.116;11.580;2024-01-15T09:59:00;3.10;80.20
14022;DHT22;7086;48.116;11.580;2024-01-15T10:01:37;3.20;79.90
14022;DHT22;7086;48.116;11.580;2024-01-15T10:04:22;3.20;80.10
14022;DHT22;7086;48.116;11.580;2024-01-15T10:06:53;3.20;79.60
14022;DHT22;7086;48.116;11.580;2024-01-15T10:09:24;3.20;79.60
14022;DHT22;7086;48.116;11.580;2024-01-15T10:14:23;3.30;79.10
14022;DHT22;7086;48.116;11.580;2024-01-15T10:16:51;3.40;79.20
14022;DHT22;7086;48.116;11.580;2024-01-15T10:19:27;3.40;79.00
14022;DHT22;7086;48.116;11.580;2024-01-15T10:24:29;3.50;79.10
14022;DHT22;7086;48.116;11.580;2024-01-15T10:27:05;3.50;78.40
14022;DHT22;7086;48.116;11.580;2024-01-15T10:29:36;3.50;78.20
14022;DHT22;7086;48.116;11.580;2024-01-15T10:32:07;3.60;78.60
14022;DHT22;7086;48.116;11.580;2024-01-15T10:34:41;3.50;77.70
14022;DHT22;7086;48.116;11.580;2024-01-15T10:37:14;3.40;78.00
14022;DHT22;7086;48.116;11.580;2024-01-15T10:44:43;3.60;77.90
14022;DHT22;7086;48.116;11.580;2024-01-15T10:47:13;3.60;77.70
14022;DHT22;7086;48.116;11.580;2024-01-15T10:49:42;3.60;77.50
14022;DHT22;7086;48.116;11.580;2024-01-15T10:52:11;3.70;77.30
14022;DHT22;7086;48.116;11.580;2024-01-15T10:54:44;2.40;76.30
14022;DHT22;7086;48.116;11.580;2024-01-15T10:57:26;3.70;77.20
14022;DHT22;7086;48.116;11.580;2024-01-15T11:03:28;3.70;77.40
14022;DHT22;7086;48.116;11.580;2024-01-15T11:05:57;3.80;77.80
14022;DHT22;7086;48.116;11.580;2024-01-15T11:08:33;3.80;77.70
14022;DHT22;7086;48.116;11.580;2024-01-15T11:16:21;4.20;76.80
14022;DHT22;7086;48.116;11.580;2024-01-15T11:19:12;4.00;77.70
14022;DHT22;7086;48.116;11.580;2024-01-15T11:21:47;4.00;77.40
14022;DHT22;7086;48.116;11.580;2024-01-15T11:24:35;4.20;77.40
14022;DHT22;7086;48.116;11.580;2024-01-15T11:27:12;4.20;77.60
14022;DHT22;7086;48.116;11.580;2024-01-15T11:30:03;4.20;77.20
14022;DHT22;7086;48.116;11.580;2024-01-15T11:32:38;4.30;76.70
14022;DHT22;7086;48.116;11.580;2024-01-15T11:35:11;4.30;76.60
14022;DHT22;7086;48.116;11.580;2024-01-15T11:37:59;4.40;76.70
14022;DHT22;7086;48.116;11.580;2024-01-15T11:40:39;4.40;76.60
14022;DHT22;7086;48.116;11.580;2024-01-15T11:43:18;4.40;76.30
14022;DHT22;7086;48.116;11.580;2024-01-15T11:45:52;4.50;75.80
14022;DHT22;7086;48.116;11.580;2024-01-15T11:48:35;4.50;76.00
14022;DHT22;7086;48.116;11.580;2024-01-15T11:51:18;4.50;76.00
14022;DHT22;7086;48.116;11.580;2024-01-15T11:53:49;4.50;75.60
14022;DHT22;7086;48.116;11.580;2024-01-15T11:56:22;4.40;74.80
14022;DHT22;7086;48.116;11.580;2024-01-15T11:59:05;4.30;75.40
14022;DHT22;7086;48.116;11.580;2024-01-15T12:01:48;4.30;75.20
14022;DHT22;7086;48.116;11.580;2024-01-15T12:10:40;4.00;75.50
14022;DHT22;7086;48.116;11.580;2024-01-15T12:13:24;4.00;75.60
14022;DHT22;7086;48.116;11.580;2024-01-15T12:18:31;4.00;75.90
14022;DHT22;7086;48.116;11.580;2024-01-15T12:26:39;3.90;76.20
14022;DHT22;7086;48.116;11.580;2024-01-15T12:37:12;3.90;77.00
14022;DHT22;7086;48.116;11.580;2024-01-15T12:39:43;3.80;76.80
14022;DHT22;7086;48.116;11.580;2024-01-15T12:42:39;3.80;76.50
14022;DHT22;7086;48.116;11.580;2024-01-15T12:47:39;3.80;75.90
14022;DHT22;7086;48.116;11.580;2024-01-15T12:50:33;3.80;76.80
14022;DHT22;7086;48.116;11.580;2024-01-15T12:53:03;3.80;76.90
14022;DHT22;7086;48.116;11.580;2024-01-15T12:55:40;3.80;77.00
14022;DHT22;7086;48.116;11.580;2024-01-15T12:58:11;3.80;77.20
14022;DHT22;7086;48.116;11.580;2024-01-15T13:00:59;3.80;77.10
14022;DHT22;7086;48.116;11.580;2024-01-15T13:06:06;4.00;77.80
14022;DHT22;7086;48.116;11.580;2024-01-15T13:08:35;4.10;77.90
14022;DHT22;7086;48.116;11.580;2024-01-15T13:11:15;4.20;79.00
14022;DHT22;7086;48.116;11.580;2024-01-15T13:13:45;4.30;78.30
14022;DHT22;7086;48.116;11.580;2024-01-15T13:16:17;4.50;78.50
14022;DHT22;7086;48.116;11.580;2024-01-15T13:21:17;4.70;77.40
14022;DHT22;7086;48.116;11.580;2024-01-15T13:23:47;4.90;77.80
14022;DHT22;7086;48.116;11.580;2024-01-15T13:45:08;5.00;75.40
14022;DHT22;7086;48.116;11.580;2024-01-15T13:47:43;5.00;76.00
14022;DHT22;7086;48.116;11.580;2024-01-15T13:50:25;5.20;75.90
14022;DHT22;7086;48.116;11.580;2024-01-15T13:55:24;5.00;76.20
14022;DHT22;7086;48.116;11.580;2024-01-15T14:00:34;4.90;76.00
14022;DHT22;7086;48.116;11.580;2024-01-15T14:03:04;4.90;75.90
14022;DHT22;7086;48.116;11.580;2024-01-15T14:05:36;4.90;76.00
14022;DHT22;7086;48.116;11.580;2024-01-15T14:08:07;4.80;75.70
14022;DHT22;7086;48.116;11.580;2024-01-15T14:10:40;4.80;76.00
14022;DHT22;7086;48.116;11.580;2024-01-15T14:13:18;4.80;76.10
14022;DHT22;7086;48.116;11.580;2024-01-15T14:16:09;4.80;75.90
14022;DHT22;7086;48.116;11.580;2024-01-15T14:18:39;4.80;76.10
14022;DHT22;7086;48.116;11.580;2024-01-15T14:21:09;4.70;76.20
14022;DHT22;7086;48.116;11.580;2024-01-15T14:23:37;4.70;76.00
14022;DHT22;7086;48.116;11.580;2024-01-15T14:26:06;4.50;75.50
14022;DHT22;7086;48.116;11.580;2024-01-15T14:28:33;4.60;76.00
14022;DHT22;7086;48.116;11.580;2024-01-15T14:34:25;4.50;76.10
14022;DHT22;7086;48.116;11.580;2024-01-15T14:37:00;4.40;75.90
14022;DHT22;7086;48.116;11.580;2024-01-15T14:39:32;4.40;76.20
14022;DHT22;7086;48.116;11.580;2024-01-15T14:42:01;4.30;76.30
14022;DHT22;7086;48.116;11.580;2024-01-15T14:44:30;4.30;75.80
14022;DHT22;7086;48.116;11.580;2024-01-15T14:47:02;4.20;76.00
14022;DHT22;7086;48.116;11.580;2024-01-15T14:49:58;4.20;76.40
14022;DHT22;7086;48.116;11.580;2024-01-15T14:52:39;3.90;75.80
14022;DHT22;7086;48.116;11.580;2024-01-15T14:55:13;4.00;76.60
14022;DHT22;7086;48.116;11.580;2024-01-15T14:57:42;3.90;76.60
14022;DHT22;7086;48.116;11.580;2024-01-15T15:00:11;3.90;76.50
14022;DHT22;7086;48.116;11.580;2024-01-15T15:02:44;3.90;77.00
14022;DHT22;7086;48.116;11.580;2024-01-15T15:05:17;3.80;76.60
14022;DHT22;7086;48.116;11.580;2024-01-15T15:07:46;3.80;76.50
14022;DHT22;7086;48.116;11.580;2024-01-15T15:13:00;3.60;76.80
14022;DHT22;7086;48.116;11.580;2024-01-15T15:20:28;3.50;77.00
14022;DHT22;7086;48.116;11.580;2024-01-15T15:22:58;3.60;76.40
14022;DHT22;7086;48.116;11.580;2024-01-15T15:25:29;3.50;76.40
14022;DHT22;7086;48.116;11.580;2024-01-15T15:28:15;2.30;75.60
14022;DHT22;7086;48.116;11.580;2024-01-15T15:33:13;3.50;77.10
14022;DHT22;7086;48.116;11.580;2024-01-15T15:35:45;3.40;77.10
14022;DHT22;7086;48.116;11.580;2024-01-15T15:40:49;3.40;77.40
14022;DHT22;7086;48.116;11.580;2024-01-15T15:43:23;3.40;77.20
14022;DHT22;7086;48.116;11.580;2024-01-15T15:48:31;3.40;77.50
14022;DHT22;7086;48.116;11.580;2024-01-15T15:51:55;3.30;77.40
14022;DHT22;7086;48.116;11.580;2024-01-15T15:54:37;3.30;77.60
14022;DHT22;7086;48.116;11.580;2024-01-15T15:57:26;3.30;76.90
14022;DHT22;7086;48.116;11.580;2024-01-15T16:00:11;3.30;77.60
14022;DHT22;7086;48.116;11.580;2024-01-15T16:05:23;3.30;77.90
14022;DHT22;7086;48.116;11.580;2024-01-15T16:08:08;3.30;78.00
14022;DHT22;7086;48.116;11.580;2024-01-15T16:13:20;3.30;78.50
14022;DHT22;7086;48.116;11.580;2024-01-15T16:15:48;0.20;76.00
14022;DHT22;7086;48.116;11.580;2024-01-15T16:18:16;3.30;78.70
14022;DHT22;7086;48.116;11.580;2024-01-15T16:20:44;3.30;78.50
14022;DHT22;7086;48.116;11.580;2024-01-15T16:23:15;3.30;78.80
14022;DHT22;7086;48.116;11.580;2024-01-15T16:25:48;3.30;79.10
14022;DHT22;7086;48.116;11.580;2024-01-15T16:30:58;3.30;79.30
14022;DHT22;7086;48.116;11.580;2024-01-15T16:33:26;3.30;79.20
14022;DHT22;7086;48.116;11.580;2024-01-15T16:35:54;3.30;79.60
14022;DHT22;7086;48.116;11.580;2024-01-15T16:38:29;3.30;79.60
14022;DHT22;7086;48.116;11.580;2024-01-15T16:41:00;3.30;79.40
14022;DHT22;7086;48.116;11.580;2024-01-15T16:46:05;3.20;80.10
14022;DHT22;7086;48.116;11.580;2024-01-15T16:48:34;3.20;80.30
14022;DHT22;7086;48.116;11.580;2024-01-15T16:51:08;3.20;80.70
14022;DHT22;7086;48.116;11.580;2024-01-15T16:53:59;3.20;81.10
14022;DHT22;7086;48.116;11.580;2024-01-15T16:56:29;3.10;81.10
14022;DHT22;7086;48.116;11.580;2024-01-15T16:59:12;3.20;81.40
14022;DHT22;7086;48.116;11.580;2024-01-15T17:01:43;3.10;81.40
14022;DHT22;7086;48.116;11.580;2024-01-15T17:04:13;3.00;81.60
14022;DHT22;7086;48.116;11.580;2024-01-15T17:06:41;3.10;81.90
14022;DHT22;7086;48.116;11.580;2024-01-15T17:09:17;0.70;80.50
14022;DHT22;7086;48.116;11.580;2024-01-15T17:11:51;3.10;82.70
14022;DHT22;7086;48.116;11.580;2024-01-15T17:14:23;3.00;83.10
14022;DHT22;7086;48.116;11.580;2024-01-15T17:17:19;3.10;83.00
14022;DHT22;7086;48.116;11.580;2024-01-15T17:19:50;3.10;82.90
14022;DHT22;7086;48.116;11.580;2024-01-15T17:22:32;3.00;83.00
14022;DHT22;7086;48.116;11.580;2024-01-15T17:25:21;3.00;83.20
14022;DHT22;7086;48.116;11.580;2024-01-15T17:27:50;3.00;83.60
14022;DHT22;7086;48.116;11.580;2024-01-15T17:35:20;4.30;83.70
14022;DHT22;7086;48.116;11.580;2024-01-15T17:37:49;3.00;83.70
14022;DHT22;7086;48.116;11.580;2024-01-15T17:40:38;2.90;83.60
14022;DHT22;7086;48.116;11.580;2024-01-15T17:43:07;2.90;83.80
14022;DHT22;7086;48.116;11.580;2024-01-15T17:45:52;2.90;85.30
14022;DHT22;7086;48.116;11.580;2024-01-15T17:48:21;2.90;85.00
14022;DHT22;7086;48.116;11.580;2024-01-15T17:50:49;5.00;88.90
14022;DHT22;7086;48.116;11.580;2024-01-15T17:53:18;2.70;86.40
14022;DHT22;7086;48.116;11.580;2024-01-15T17:56:04;2.50;87.10
14022;DHT22;7086;48.116;11.580;2024-01-15T18:01:15;2.10;87.80
14022;DHT22;7086;48.116;11.580;2024-01-15T18:06:19;1.90;88.70
14022;DHT22;7086;48.116;11.580;2024-01-15T18:11:18;1.70;89.10
14022;DHT22;7086;48.116;11.580;2024-01-15T18:13:48;1.60;89.20
14022;DHT22;7086;48.116;11.580;2024-01-15T18:16:20;1.60;90.10
14022;DHT22;7086;48.116;11.580;2024-01-15T18:18:52;1.50;90.20
14022;DHT22;7086;48.116;11.580;2024-01-15T18:21:21;1.40;90.50
14022;DHT22;7086;48.116;11.580;2024-01-15T18:23:51;1.40;90.50
14022;DHT22;7086;48.116;11.580;2024-01-15T18:26:24;1.40;90.90
14022;DHT22;7086;48.116;11.580;2024-01-15T18:28:55;1.30;91.00
14022;DHT22;7086;48.116;11.580;2024-01-15T18:31:22;1.30;91.20
14022;DHT22;7086;48.116;11.580;2024-01-15T18:36:22;1.20;91.30
14022;DHT22;7086;48.116;11.580;2024-01-15T18:44:01;1.30;91.30
14022;DHT22;7086;48.116;11.580;2024-01-15T18:49:00;1.30;91.60
14022;DHT22;7086;48.116;11.580;2024-01-15T18:54:12;1.30;91.40
14022;DHT22;7086;48.116;11.580;2024-01-15T18:56:43;1.20;91.50
14022;DHT22;7086;48.116;11.580;2024-01-15T18:59:31;1.30;91.70
14022;DHT22;7086;48.116;11.580;2024-01-15T19:02:00;1.20;91.20
14022;DHT22;7086;48.116;11.580;2024-01-15T19:07:05;1.20;91.10
14022;DHT22;7086;48.116;11.580;2024-01-15T19:09:33;1.20;90.90
14022;DHT22;7086;48.116;11.580;2024-01-15T19:12:01;1.10;90.60
14022;DHT22;7086;48.116;11.580;2024-01-15T19:14:34;1.10;90.80
14022;DHT22;7086;48.116;11.580;2024-01-15T19:17:03;1.00;90.50
14022;DHT22;7086;48.116;11.580;2024-01-15T19:19:31;1.00;90.50
14022;DHT22;7086;48.116;11.580;2024-01-15T19:24:31;0.90;89.70
14022;DHT22;7086;48.116;11.580;2024-01-15T19:27:04;0.80;89.90
14022;DHT22;7086;48.116;11.580;2024-01-15T19:32:03;0.80;89.50
14022;DHT22;7086;48.116;11.580;2024-01-15T19:34:31;0.80;89.40
14022;DHT22;7086;48.116;11.580;2024-01-15T19:36:59;0.80;89.00
14022;DHT22;7086;48.116;11.580;2024-01-15T19:39:27;0.70;88.50
14022;DHT22;7086;48.116;11.580;2024-01-15T19:41:56;0.70;88.60
14022;DHT22;7086;48.116;11.580;2024-01-15T19:44:36;0.70;88.40
14022;DHT22;7086;48.116;11.580;2024-01-15T19:47:05;0.70;88.10
14022;DHT22;7086;48.116;11.580;2024-01-15T19:59:25;0.60;87.70
14022;DHT22;7086;48.116;11.580;2024-01-15T20:01:54;0.50;87.60
14022;DHT22;7086;48.116;11.580;2024-01-15T20:06:52;0.50;87.70
14022;DHT22;7086;48.116;11.580;2024-01-15T20:09:22;0.50;87.60
14022;DHT22;7086;48.116;11.580;2024-01-15T20:14:18;0.40;87.40
14022;DHT22;7086;48.116;11.580;2024-01-15T20:16:46;0.40;87.20
14022;DHT22;7086;48.116;11.580;2024-01-15T20:19:17;0.40;86.90
14022;DHT22;7086;48.116;11.580;2024-01-15T20:21:45;0.40;87.00
14022;DHT22;7086;48.116;11.580;2024-01-15T20:24:16;0.30;86.80
14022;DHT22;7086;48.116;11.580;2024-01-15T20:26:44;0.30;86.50
14022;DHT22;7086;48.116;11.580;2024-01-15T20:29:13;0.30;86.40
14022;DHT22;7086;48.116;11.580;2024-01-15T20:31:40;0.30;86.20
14022;DHT22;7086;48.116;11.580;2024-01-15T20:34:08;0.30;85.90
14022;DHT22;7086;48.116;11.580;2024-01-15T20:37:05;0.30;85.90
14022;DHT22;7086;48.116;11.580;2024-01-15T20:39:33;0.30;85.80
14022;DHT22;7086;48.116;11.580;2024-01-15T20:42:01;0.30;85.60
14022;DHT22;7086;48.116;11.580;2024-01-15T20:44:29;0.30;85.50
14022;DHT22;7086;48.116;11.580;2024-01-15T20:54:22;0.10;85.40
14022;DHT22;7086;48.116;11.580;2024-01-15T20:56:50;0.10;85.30
14022;DHT22;7086;48.116;11.580;2024-01-15T20:59:18;0.10;85.40
14022;DHT22;7086;48.116;11.580;2024-01-15T21:04:23;0.10;85.40
14022;DHT22;7086;48.116;11.580;2024-01-15T21:06:51;0.00;85.00
14022;DHT22;7086;48.116;11.580;2024-01-15T21:09:23;0.00;85.20
14022;DHT22;7086;48.116;11.580;2024-01-15T21:14:18;-0.10;85.00
14022;DHT22;7086;48.116;11.580;2024-01-15T21:16:46;-0.10;85.10
14022;DHT22;7086;48.116;11.580;2024-01-15T21:19:14;0.00;86.60
14022;DHT22;7086;48.116;11.580;2024-01-15T21:21:43;0.00;86.40
14022;DHT22;7086;48.116;11.580;2024-01-15T21:26:44;0.00;85.80
14022;DHT22;7086;48.116;11.580;2024-01-15T21:29:14;0.00;85.60
14022;DHT22;7086;48.116;11.580;2024-01-15T21:31:41;0.00;85.50
14022;DHT22;7086;48.116;11.580;2024-01-15T21:34:09;-0.10;85.40
14022;DHT22;7086;48.116;11.580;2024-01-15T21:39:06;-0.10;85.30
14022;DHT22;7086;48.116;11.580;2024-01-15T21:41:34;-0.10;85.30
14022;DHT22;7086;48.116;11.580;2024-01-15T21:44:05;-0.10;85.30
14022;DHT22;7086;48.116;11.580;2024-01-15T21:46:32;-0.20;85.00
14022;DHT22;7086;48.116;11.580;2024-01-15T21:49:01;-0.10;85.30
14022;DHT22;7086;48.116;11.580;2024-01-15T21:51:30;-0.30;85.30
14022;DHT22;7086;48.116;11.580;2024-01-15T21:56:26;-0.20;85.30
14022;DHT22;7086;48.116;11.580;2024-01-15T21:58:53;-0.20;85.30
14022;DHT22;7086;48.116;11.580;2024-01-15T22:01:26;-0.30;85.10
14022;DHT22;7086;48.116;11.580;2024-01-15T22:11:19;-0.30;84.80
14022;DHT22;7086;48.116;11.580;2024-01-15T22:16:14;-0.30;84.60
14022;DHT22;7086;48.116;11.580;2024-01-15T22:18:43;-0.30;84.70
14022;DHT22;7086;48.116;11.580;2024-01-15T22:21:11;-0.30;84.50